createdAt,value
2024-03-05T00:00:16.116Z,7.00
2024-03-05T00:02:44.546Z,7.00
2024-03-05T00:05:15.488Z,6.90
2024-03-05T00:07:42.648Z,6.80
2024-03-05T00:10:09.828Z,6.80
2024-03-05T00:12:36.692Z,6.80
2024-03-05T00:15:06.313Z,6.70
2024-03-05T00:17:33.411Z,6.60
2024-03-05T00:20:00.389Z,6.40
2024-03-05T00:22:27.410Z,6.30
2024-03-05T00:24:54.248Z,6.20
2024-03-05T00:27:21.070Z,6.10
2024-03-05T00:29:49.038Z,5.90
2024-03-05T00:32:16.988Z,5.80
2024-03-05T00:34:43.863Z,5.70
2024-03-05T00:37:10.668Z,5.50
2024-03-05T00:39:37.456Z,5.40
2024-03-05T00:42:04.863Z,5.30
2024-03-05T00:44:31.753Z,5.10
2024-03-05T00:46:58.652Z,5.00
2024-03-05T00:49:25.582Z,5.00
2024-03-05T00:51:52.440Z,4.90
2024-03-05T00:54:19.934Z,4.80
2024-03-05T00:56:46.793Z,4.70
2024-03-05T00:59:13.706Z,4.70
2024-03-05T01:01:40.896Z,4.60
2024-03-05T01:04:09.416Z,4.60
2024-03-05T01:06:36.433Z,4.60
2024-03-05T01:09:07.693Z,4.60
2024-03-05T01:11:34.522Z,4.60
2024-03-05T01:14:01.566Z,4.60
2024-03-05T01:16:28.703Z,4.50
2024-03-05T01:18:56.670Z,4.50
2024-03-05T01:21:23.541Z,4.50
2024-03-05T01:23:50.406Z,4.50
2024-03-05T01:26:17.252Z,4.60
2024-03-05T01:28:44.712Z,4.60
2024-03-05T01:31:11.928Z,4.70
2024-03-05T01:33:41.261Z,4.70
2024-03-05T01:36:11.543Z,4.80
2024-03-05T01:38:38.475Z,4.80
2024-03-05T01:41:06.030Z,4.90
2024-03-05T01:43:33.787Z,4.90
2024-03-05T01:46:01.069Z,4.90
2024-03-05T01:48:29.753Z,4.90
2024-03-05T01:50:57.227Z,4.90
2024-03-05T01:53:25.518Z,5.00
2024-03-05T01:55:55.061Z,5.00
2024-03-05T01:58:23.017Z,5.00
2024-03-05T02:00:50.175Z,5.10
2024-03-05T02:03:18.486Z,5.10
2024-03-05T02:05:47.597Z,5.10
2024-03-05T02:08:18.452Z,5.10
2024-03-05T02:10:48.389Z,5.10
2024-03-05T02:13:15.451Z,5.00
2024-03-05T02:15:42.328Z,5.00
2024-03-05T02:18:09.243Z,5.00
2024-03-05T02:20:36.336Z,5.10
2024-03-05T02:23:05.898Z,5.20
2024-03-05T02:25:32.923Z,5.20
2024-03-05T02:28:02.902Z,5.20
2024-03-05T02:30:30.675Z,5.20
2024-03-05T02:32:59.372Z,5.20
2024-03-05T02:35:26.228Z,5.20
2024-03-05T02:37:53.206Z,5.20
2024-03-05T02:40:20.210Z,5.30
2024-03-05T02:42:47.026Z,5.20
2024-03-05T02:45:14.340Z,5.10
2024-03-05T02:47:42.007Z,5.10
2024-03-05T02:50:12.606Z,5.20
2024-03-05T02:52:40.414Z,5.20
2024-03-05T02:55:11.726Z,5.20
2024-03-05T02:57:42.935Z,5.20
2024-03-05T03:00:14.665Z,5.10
2024-03-05T03:02:41.535Z,5.00
2024-03-05T03:05:08.718Z,4.90
2024-03-05T03:07:36.921Z,4.90
2024-03-05T03:10:04.000Z,4.70
2024-03-05T03:12:30.785Z,4.60
2024-03-05T03:14:57.665Z,4.60
2024-03-05T03:17:24.437Z,4.50
2024-03-05T03:19:51.558Z,4.50
2024-03-05T03:22:18.478Z,4.50
2024-03-05T03:24:45.329Z,4.50
2024-03-05T03:27:12.768Z,4.40
2024-03-05T03:29:41.868Z,4.30
2024-03-05T03:32:11.256Z,4.30
2024-03-05T03:34:41.637Z,4.30
2024-03-05T03:37:09.158Z,4.50
2024-03-05T03:39:36.988Z,4.50
2024-03-05T03:42:03.903Z,4.60
2024-03-05T03:44:30.721Z,4.60
2024-03-05T03:46:57.683Z,4.70
2024-03-05T03:49:25.429Z,4.70
2024-03-05T03:51:54.679Z,4.70
2024-03-05T03:54:22.762Z,4.80
2024-03-05T03:56:50.070Z,4.80
2024-03-05T03:59:17.136Z,4.90
2024-03-05T04:01:53.213Z,4.90
2024-03-05T04:04:20.313Z,4.90
2024-03-05T04:06:47.686Z,4.90
2024-03-05T04:09:15.441Z,5.00
2024-03-05T04:11:43.593Z,5.00
2024-03-05T04:14:10.878Z,5.00
2024-03-05T04:16:42.089Z,5.10
2024-03-05T04:19:09.833Z,5.10
2024-03-05T04:21:43.630Z,5.20
2024-03-05T04:24:12.779Z,5.20
2024-03-05T04:26:40.462Z,5.30
2024-03-05T04:29:10.160Z,5.20
2024-03-05T04:31:46.989Z,5.20
2024-03-05T04:34:20.421Z,5.20
2024-03-05T04:36:47.422Z,5.30
2024-03-05T04:39:17.105Z,5.40
2024-03-05T04:41:47.169Z,5.40
2024-03-05T04:44:14.956Z,5.40
2024-03-05T04:46:42.286Z,5.40
2024-03-05T04:49:09.161Z,5.40
2024-03-05T04:51:36.360Z,5.40
2024-03-05T04:54:03.291Z,5.40
2024-03-05T04:56:30.096Z,5.30
2024-03-05T04:58:57.633Z,5.30
2024-03-05T05:01:27.689Z,5.30
2024-03-05T05:03:54.628Z,5.40
2024-03-05T05:06:22.599Z,5.40
2024-03-05T05:08:50.498Z,5.40
2024-03-05T05:11:17.714Z,5.40
2024-03-05T05:13:45.765Z,5.50
2024-03-05T05:16:12.962Z,5.40
2024-03-05T05:18:40.011Z,5.50
2024-03-05T05:21:08.809Z,5.40
2024-03-05T05:23:36.127Z,5.40
2024-03-05T05:26:03.398Z,5.40
2024-03-05T05:28:30.433Z,5.50
2024-03-05T05:30:57.405Z,5.60
2024-03-05T05:33:25.692Z,5.60
2024-03-05T05:35:52.878Z,5.60
2024-03-05T05:38:19.665Z,5.60
2024-03-05T05:40:46.834Z,5.60
2024-03-05T05:43:14.390Z,5.70
2024-03-05T05:45:41.217Z,5.70
2024-03-05T05:48:27.832Z,5.70
2024-03-05T05:50:56.617Z,5.80
2024-03-05T05:53:24.127Z,5.80
2024-03-05T05:55:50.963Z,5.80
2024-03-05T05:58:18.146Z,5.70
2024-03-05T06:00:45.682Z,5.70
2024-03-05T06:03:12.621Z,5.60
2024-03-05T06:05:43.725Z,5.70
2024-03-05T06:08:13.479Z,5.70
2024-03-05T06:10:43.203Z,5.70
2024-03-05T06:13:10.633Z,5.60
2024-03-05T06:15:39.729Z,5.60
2024-03-05T06:18:07.520Z,5.70
2024-03-05T06:20:34.529Z,5.60
2024-03-05T06:23:02.280Z,5.60
2024-03-05T06:25:29.420Z,5.70
2024-03-05T06:27:57.539Z,5.80
2024-03-05T06:30:24.549Z,5.70
2024-03-05T06:32:52.868Z,5.80
2024-03-05T06:35:24.942Z,5.80
2024-03-05T06:37:53.205Z,5.80
2024-03-05T06:40:21.669Z,5.80
2024-03-05T06:43:05.947Z,5.80
2024-03-05T06:45:36.569Z,5.80
2024-03-05T06:48:15.849Z,5.80
2024-03-05T06:50:44.824Z,5.80
2024-03-05T06:53:30.972Z,5.70
2024-03-05T06:56:16.679Z,5.60
2024-03-05T06:58:46.328Z,5.60
2024-03-05T07:01:15.221Z,5.60
2024-03-05T07:03:43.710Z,5.60
2024-03-05T07:06:11.483Z,5.70
2024-03-05T07:08:43.425Z,5.70
2024-03-05T07:11:12.309Z,5.70
2024-03-05T07:13:44.578Z,5.70
2024-03-05T07:16:18.739Z,5.70
2024-03-05T07:18:48.942Z,5.70
2024-03-05T07:21:18.304Z,5.80
2024-03-05T07:23:47.572Z,5.90
2024-03-05T07:26:16.408Z,5.90
2024-03-05T07:28:44.035Z,5.90
2024-03-05T07:31:11.527Z,6.00
2024-03-05T07:33:39.663Z,6.10
2024-03-05T07:36:07.880Z,6.10
2024-03-05T07:38:34.803Z,6.20
2024-03-05T07:41:10.945Z,6.20
2024-03-05T07:43:44.411Z,6.30
2024-03-05T07:46:11.678Z,6.30
2024-03-05T07:48:38.797Z,6.30
2024-03-05T07:51:05.659Z,6.30
2024-03-05T07:53:32.457Z,6.40
2024-03-05T07:55:59.332Z,6.40
2024-03-05T07:58:26.369Z,6.40
2024-03-05T08:00:53.248Z,6.40
2024-03-05T08:03:20.055Z,6.40
2024-03-05T08:05:46.835Z,6.40
2024-03-05T08:08:13.632Z,6.40
2024-03-05T08:10:40.448Z,6.40
2024-03-05T08:13:08.267Z,6.40
2024-03-05T08:15:35.180Z,6.40
2024-03-05T08:18:02.114Z,6.50
2024-03-05T08:20:28.939Z,6.50
2024-03-05T08:22:57.400Z,6.50
2024-03-05T08:25:25.320Z,6.40
2024-03-05T08:27:56.468Z,6.40
2024-03-05T08:30:24.914Z,6.40
2024-03-05T08:32:56.820Z,6.40
2024-03-05T08:35:24.082Z,6.50
2024-03-05T08:37:51.875Z,6.60
2024-03-05T08:40:20.944Z,6.70
2024-03-05T08:42:55.198Z,6.70
2024-03-05T08:45:24.091Z,6.70
2024-03-05T08:47:52.449Z,6.80
2024-03-05T08:50:20.069Z,6.80
2024-03-05T08:52:47.948Z,6.80
2024-03-05T08:55:16.631Z,6.90
2024-03-05T08:57:44.174Z,7.00
2024-03-05T09:00:27.074Z,7.10
2024-03-05T09:03:03.412Z,7.10
2024-03-05T09:05:30.254Z,7.20
2024-03-05T09:07:57.168Z,7.10
2024-03-05T09:10:24.191Z,7.10
2024-03-05T09:12:52.003Z,7.20
2024-03-05T09:15:18.963Z,7.20
2024-03-05T09:17:47.810Z,7.30
2024-03-05T09:20:18.645Z,7.30
2024-03-05T09:22:47.633Z,7.30
2024-03-05T09:25:16.395Z,7.30
2024-03-05T09:27:46.416Z,7.30
2024-03-05T09:30:16.467Z,7.30
2024-03-05T09:32:44.860Z,7.20
2024-03-05T09:35:14.252Z,7.20
2024-03-05T09:37:41.920Z,7.30
2024-03-05T09:40:18.453Z,7.30
2024-03-05T09:42:46.512Z,7.30
2024-03-05T09:45:19.024Z,7.30
2024-03-05T09:47:48.460Z,7.30
2024-03-05T09:50:17.945Z,7.40
2024-03-05T09:52:47.743Z,7.50
2024-03-05T09:55:16.501Z,7.50
2024-03-05T09:57:47.237Z,7.60
2024-03-05T10:00:18.839Z,7.60
2024-03-05T10:02:53.170Z,7.60
2024-03-05T10:05:21.287Z,7.70
2024-03-05T10:07:49.504Z,7.70
2024-03-05T10:10:22.404Z,7.80
2024-03-05T10:12:51.629Z,7.90
2024-03-05T10:15:21.908Z,7.90
2024-03-05T10:17:51.157Z,8.00
2024-03-05T10:20:28.330Z,8.00
2024-03-05T10:22:57.441Z,8.10
2024-03-05T10:25:25.231Z,8.20
2024-03-05T10:27:52.648Z,8.30
2024-03-05T10:30:38.762Z,8.40
2024-03-05T10:33:09.103Z,8.60
2024-03-05T10:35:37.941Z,8.60
2024-03-05T10:38:10.261Z,8.70
2024-03-05T10:40:38.400Z,8.70
2024-03-05T10:43:10.505Z,8.70
2024-03-05T10:45:41.672Z,8.70
2024-03-05T10:48:11.232Z,8.70
2024-03-05T10:50:44.990Z,8.60
2024-03-05T10:53:14.042Z,8.60
2024-03-05T10:55:44.395Z,8.50
2024-03-05T10:58:12.729Z,8.40
2024-03-05T11:00:42.194Z,8.30
2024-03-05T11:03:10.645Z,8.30
2024-03-05T11:05:49.252Z,8.30
2024-03-05T11:08:20.214Z,8.40
2024-03-05T11:11:13.749Z,8.40
2024-03-05T11:13:42.469Z,8.40
2024-03-05T11:16:10.240Z,8.50
2024-03-05T11:18:38.718Z,8.50
2024-03-05T11:21:10.465Z,8.50
2024-03-05T11:24:01.539Z,8.40
2024-03-05T11:26:33.550Z,8.50
2024-03-05T11:29:18.409Z,8.50
2024-03-05T11:31:48.787Z,8.50
2024-03-05T11:34:18.716Z,8.60
2024-03-05T11:36:46.193Z,8.50
2024-03-05T11:39:19.050Z,8.40
2024-03-05T11:41:47.622Z,8.50
2024-03-05T11:44:42.661Z,8.50
2024-03-05T11:47:09.906Z,8.40
2024-03-05T11:49:37.709Z,8.50
2024-03-05T11:52:05.248Z,8.40
2024-03-05T11:54:33.554Z,8.40
2024-03-05T11:57:02.236Z,8.40
2024-03-05T11:59:40.106Z,8.50
2024-03-05T12:02:11.422Z,8.60
2024-03-05T12:04:39.784Z,8.60
2024-03-05T12:07:09.652Z,8.70
2024-03-05T12:09:40.782Z,8.60
2024-03-05T12:12:13.828Z,8.70
2024-03-05T12:15:07.004Z,8.70
2024-03-05T12:17:34.403Z,8.90
2024-03-05T12:20:09.706Z,9.00
2024-03-05T12:22:41.417Z,9.10
2024-03-05T12:25:09.508Z,9.10
2024-03-05T12:27:38.518Z,9.20
2024-03-05T12:30:07.720Z,9.20
2024-03-05T12:32:34.885Z,9.30
2024-03-05T12:35:01.971Z,9.40
2024-03-05T12:37:31.095Z,9.50
2024-03-05T12:40:00.444Z,9.50
2024-03-05T12:42:27.461Z,9.60
2024-03-05T12:45:08.948Z,9.60
2024-03-05T12:47:37.071Z,9.50
2024-03-05T12:50:05.778Z,9.20
2024-03-05T12:52:35.782Z,9.10
2024-03-05T12:55:08.755Z,8.90
2024-03-05T12:57:36.196Z,8.90
2024-03-05T13:00:11.312Z,8.90
2024-03-05T13:02:39.233Z,8.80
2024-03-05T13:05:07.000Z,8.70
2024-03-05T13:07:35.951Z,8.70
2024-03-05T13:10:11.213Z,8.70
2024-03-05T13:12:43.589Z,8.70
2024-03-05T13:15:10.859Z,8.70
2024-03-05T13:17:37.807Z,8.60
2024-03-05T13:20:05.662Z,8.60
2024-03-05T13:22:33.240Z,8.50
2024-03-05T13:25:00.051Z,8.50
2024-03-05T13:27:27.530Z,8.50
2024-03-05T13:30:05.483Z,8.40
2024-03-05T13:32:38.656Z,8.40
2024-03-05T13:35:08.189Z,8.40
2024-03-05T13:37:39.071Z,8.40
2024-03-05T13:40:08.062Z,8.40
2024-03-05T13:42:37.339Z,8.40
2024-03-05T13:45:13.168Z,8.40
2024-03-05T13:47:40.542Z,8.40
2024-03-05T13:50:11.856Z,8.50
2024-03-05T13:52:43.625Z,8.50
2024-03-05T13:55:12.240Z,8.60
2024-03-05T13:57:39.847Z,8.70
2024-03-05T14:00:15.319Z,8.90
2024-03-05T14:02:42.157Z,9.00
2024-03-05T14:05:12.406Z,9.00
2024-03-05T14:07:39.518Z,9.10
2024-03-05T14:10:06.730Z,9.20
2024-03-05T14:12:36.391Z,9.20
2024-03-05T14:15:09.765Z,9.20
2024-03-05T14:17:37.916Z,9.20
2024-03-05T14:20:08.485Z,9.20
2024-03-05T14:22:39.740Z,9.10
2024-03-05T14:25:08.271Z,9.20
2024-03-05T14:27:35.148Z,9.20
2024-03-05T14:30:02.020Z,9.20
2024-03-05T14:32:28.953Z,9.20
2024-03-05T14:34:58.563Z,9.20
2024-03-05T14:37:25.537Z,9.30
2024-03-05T14:39:53.190Z,9.30
2024-03-05T14:42:19.992Z,9.40
2024-03-05T14:44:47.267Z,9.40
2024-03-05T14:47:14.144Z,9.40
2024-03-05T14:49:40.979Z,9.40
2024-03-05T14:52:07.806Z,9.30
2024-03-05T14:54:34.653Z,9.20
2024-03-05T14:57:01.477Z,9.30
2024-03-05T14:59:28.305Z,9.40
2024-03-05T15:01:55.940Z,9.30
2024-03-05T15:04:22.933Z,9.20
2024-03-05T15:06:50.395Z,9.10
2024-03-05T15:09:18.950Z,9.10
2024-03-05T15:11:47.137Z,9.00
2024-03-05T15:14:14.149Z,9.00
2024-03-05T15:16:41.004Z,8.90
2024-03-05T15:19:07.900Z,8.70
2024-03-05T15:21:34.968Z,8.60
2024-03-05T15:24:01.777Z,8.50
2024-03-05T15:26:28.584Z,8.50
2024-03-05T15:28:55.532Z,8.50
2024-03-05T15:31:22.479Z,8.50
2024-03-05T15:33:49.294Z,8.50
2024-03-05T15:36:16.363Z,8.60
2024-03-05T15:38:43.162Z,8.60
2024-03-05T15:41:11.005Z,8.50
2024-03-05T15:43:41.030Z,8.50
2024-03-05T15:46:07.847Z,8.50
2024-03-05T15:48:34.775Z,8.40
2024-03-05T15:51:01.833Z,8.40
2024-03-05T15:53:29.052Z,8.40
2024-03-05T15:56:15.788Z,8.40
2024-03-05T15:58:42.870Z,8.40
2024-03-05T16:01:12.211Z,8.30
2024-03-05T16:03:57.456Z,8.40
2024-03-05T16:06:30.492Z,8.30
2024-03-05T16:08:58.778Z,8.30
2024-03-05T16:11:26.828Z,8.30
2024-03-05T16:13:54.942Z,8.20
2024-03-05T16:16:24.656Z,8.10
2024-03-05T16:18:51.764Z,8.10
2024-03-05T16:21:18.681Z,8.00
2024-03-05T16:23:47.089Z,8.00
2024-03-05T16:26:13.971Z,7.90
2024-03-05T16:28:41.388Z,7.90
2024-03-05T16:31:12.396Z,7.80
2024-03-05T16:33:42.269Z,7.90
2024-03-05T16:36:09.257Z,7.90
2024-03-05T16:38:37.500Z,7.80
2024-03-05T16:41:04.594Z,7.80
2024-03-05T16:43:31.640Z,7.80
2024-03-05T16:45:59.343Z,7.80
2024-03-05T16:48:26.398Z,7.90
2024-03-05T16:50:53.251Z,7.90
2024-03-05T16:53:21.038Z,7.90
2024-03-05T16:55:48.903Z,7.90
2024-03-05T16:58:19.029Z,8.00
2024-03-05T17:00:52.502Z,8.00
2024-03-05T17:03:21.889Z,8.00
2024-03-05T17:05:55.481Z,7.90
2024-03-05T17:08:24.703Z,7.90
2024-03-05T17:10:52.435Z,7.70
2024-03-05T17:13:20.656Z,7.60
2024-03-05T17:15:57.278Z,7.50
2024-03-05T17:18:24.702Z,7.50
2024-03-05T17:20:52.495Z,7.40
2024-03-05T17:23:24.245Z,7.30
2024-03-05T17:25:53.182Z,7.20
2024-03-05T17:28:20.343Z,7.10
2024-03-05T17:30:49.580Z,7.10
2024-03-05T17:33:17.365Z,7.00
2024-03-05T17:35:44.558Z,7.00
2024-03-05T17:38:13.955Z,7.00
2024-03-05T17:40:41.353Z,7.00
2024-03-05T17:43:08.426Z,6.90
2024-03-05T17:45:35.705Z,6.90
2024-03-05T17:48:07.063Z,6.80
2024-03-05T17:50:36.105Z,6.80
2024-03-05T17:53:06.393Z,6.80
2024-03-05T17:55:35.785Z,6.80
2024-03-05T17:58:05.146Z,6.80
2024-03-05T18:00:42.949Z,6.80
2024-03-05T18:03:12.232Z,6.70
2024-03-05T18:05:39.725Z,6.80
2024-03-05T18:08:06.897Z,6.80
2024-03-05T18:10:36.166Z,6.80
2024-03-05T18:13:06.240Z,6.80
2024-03-05T18:15:33.518Z,6.70
2024-03-05T18:18:01.136Z,6.70
2024-03-05T18:23:28.241Z,6.60
2024-03-05T18:25:55.364Z,6.70
2024-03-05T18:28:23.779Z,6.70
2024-03-05T18:30:50.740Z,6.70
2024-03-05T18:33:18.930Z,6.70
2024-03-05T18:35:46.478Z,6.70
2024-03-05T18:38:23.583Z,6.70
2024-03-05T18:40:58.055Z,6.70
2024-03-05T18:43:25.966Z,6.60
2024-03-05T18:45:53.002Z,6.60
2024-03-05T18:48:19.830Z,6.60
2024-03-05T18:50:48.674Z,6.60
2024-03-05T18:53:16.909Z,6.60
2024-03-05T18:55:43.734Z,6.50
2024-03-05T18:58:11.542Z,6.50
2024-03-05T19:00:38.702Z,6.60
2024-03-05T19:03:06.340Z,6.60
2024-03-05T19:05:46.101Z,6.60
2024-03-05T19:08:12.964Z,6.60
2024-03-05T19:11:23.905Z,6.60
2024-03-05T19:13:56.881Z,6.70
2024-03-05T19:16:41.949Z,6.70
2024-03-05T19:19:08.648Z,6.70
2024-03-05T19:21:35.363Z,6.70
2024-03-05T19:24:02.143Z,6.70
2024-03-05T19:26:29.771Z,6.70
2024-03-05T19:28:56.583Z,6.60
2024-03-05T19:31:24.484Z,6.70
2024-03-05T19:33:51.396Z,6.60
2024-03-05T19:36:19.649Z,6.60
2024-03-05T19:38:46.662Z,6.60
2024-03-05T19:41:13.610Z,6.60
2024-03-05T19:43:40.981Z,6.60
2024-03-05T19:46:08.408Z,6.50
2024-03-05T19:48:35.292Z,6.50
2024-03-05T19:51:02.742Z,6.40
2024-03-05T19:53:30.478Z,6.40
2024-03-05T19:55:58.607Z,6.40
2024-03-05T19:58:25.453Z,6.50
2024-03-05T20:00:52.450Z,6.40
2024-03-05T20:03:19.288Z,6.40
2024-03-05T20:05:48.443Z,6.40
2024-03-05T20:08:18.373Z,6.40
2024-03-05T20:10:45.664Z,6.40
2024-03-05T20:13:12.820Z,6.40
2024-03-05T20:15:41.933Z,6.30
2024-03-05T20:18:09.479Z,6.40
2024-03-05T20:20:37.539Z,6.40
2024-03-05T20:23:04.672Z,6.30
2024-03-05T20:25:31.753Z,6.30
2024-03-05T20:28:00.397Z,6.20
2024-03-05T20:30:29.600Z,6.20
2024-03-05T20:32:56.473Z,6.20
2024-03-05T20:35:25.296Z,6.30
2024-03-05T20:37:54.081Z,6.30
2024-03-05T20:40:23.791Z,6.30
2024-03-05T20:42:50.619Z,6.30
2024-03-05T20:45:17.980Z,6.30
2024-03-05T20:47:45.041Z,6.30
2024-03-05T20:50:12.973Z,6.40
2024-03-05T20:52:40.389Z,6.40
2024-03-05T20:55:07.763Z,6.40
2024-03-05T20:57:35.114Z,6.40
2024-03-05T21:00:23.752Z,6.40
2024-03-05T21:02:52.891Z,6.30
2024-03-05T21:05:20.225Z,6.40
2024-03-05T21:07:48.005Z,6.30
2024-03-05T21:10:15.174Z,6.30
2024-03-05T21:12:42.379Z,6.40
2024-03-05T21:15:13.739Z,6.30
2024-03-05T21:17:41.867Z,6.30
2024-03-05T21:20:11.013Z,6.30
2024-03-05T21:22:39.269Z,6.30
2024-03-05T21:25:07.092Z,6.30
2024-03-05T21:27:39.513Z,6.30
2024-03-05T21:30:08.472Z,6.30
2024-03-05T21:32:38.732Z,6.30
2024-03-05T21:35:09.534Z,6.30
2024-03-05T21:37:37.225Z,6.30
2024-03-05T21:40:07.561Z,6.30
2024-03-05T21:42:34.699Z,6.30
2024-03-05T21:45:01.740Z,6.20
2024-03-05T21:47:29.049Z,6.20
2024-03-05T21:49:55.913Z,6.30
2024-03-05T21:52:22.746Z,6.30
2024-03-05T21:54:49.557Z,6.40
2024-03-05T21:57:16.382Z,6.30
2024-03-05T21:59:43.166Z,6.30
2024-03-05T22:02:10.136Z,6.30
2024-03-05T22:04:37.178Z,6.20
2024-03-05T22:07:05.078Z,6.30
2024-03-05T22:09:33.010Z,6.30
2024-03-05T22:12:03.036Z,6.30
2024-03-05T22:14:32.075Z,6.30
2024-03-05T22:16:58.904Z,6.30
2024-03-05T22:19:26.105Z,6.30
2024-03-05T22:21:52.916Z,6.30
2024-03-05T22:24:19.738Z,6.20
2024-03-05T22:26:47.819Z,6.20
2024-03-05T22:29:15.132Z,6.20
2024-03-05T22:31:41.942Z,6.30
2024-03-05T22:34:08.804Z,6.20
2024-03-05T22:36:36.251Z,6.10
2024-03-05T22:39:03.602Z,6.00
2024-03-05T22:41:30.397Z,6.00
2024-03-05T22:43:57.462Z,6.00
2024-03-05T22:46:26.777Z,6.10
2024-03-05T22:48:54.672Z,6.10
2024-03-05T22:51:21.502Z,6.00
2024-03-05T22:53:48.370Z,6.00
2024-03-05T22:56:15.538Z,5.90
2024-03-05T22:58:43.045Z,5.90
2024-03-05T23:01:11.285Z,5.90
2024-03-05T23:03:38.252Z,5.90
2024-03-05T23:06:11.845Z,5.90
2024-03-05T23:08:43.010Z,5.90
2024-03-05T23:11:11.502Z,5.90
2024-03-05T23:13:38.627Z,5.90
2024-03-05T23:16:06.593Z,5.90
2024-03-05T23:18:33.740Z,5.90
2024-03-05T23:21:01.165Z,5.90
2024-03-05T23:23:28.373Z,5.90
2024-03-05T23:25:55.263Z,5.90
2024-03-05T23:28:22.120Z,5.90
2024-03-05T23:30:49.925Z,5.90
2024-03-05T23:33:17.110Z,5.90
2024-03-05T23:35:44.348Z,5.90
2024-03-05T23:38:11.416Z,5.90
2024-03-05T23:40:38.376Z,5.90
2024-03-05T23:43:05.410Z,5.80
2024-03-05T23:45:32.216Z,5.80
2024-03-05T23:47:59.121Z,5.80
2024-03-05T23:50:25.974Z,5.80
2024-03-05T23:52:52.798Z,5.80
2024-03-05T23:55:19.982Z,5.70
2024-03-05T23:57:46.876Z,5.70
